sensor_id;sensor_type;location;lat;lon;timestamp;P1;durP1;ratioP1;P2;durP2;ratioP2
48006;SDS011;33771;48.180;11.400;2023-05-29T00:00:25;12.57;;;7.57;;
48006;SDS011;33771;48.180;11.400;2023-05-29T00:02:51;15.67;;;8.73;;
48006;SDS011;33771;48.180;11.400;2023-05-29T00:05:17;13.43;;;8.00;;
48006;SDS011;33771;48.180;11.400;2023-05-29T00:07:43;16.47;;;8.13;;
48006;SDS011;33771;48.180;11.400;2023-05-29T00:10:09;13.57;;;8.10;;
48006;SDS011;33771;48.180;11.400;2023-05-29T00:12:36;13.63;;;7.93;;
48006;SDS011;33771;48.180;11.400;2023-05-29T00:15:03;18.10;;;8.13;;
48006;SDS011;33771;48.180;11.400;2023-05-29T00:17:29;14.03;;;7.43;;
48006;SDS011;33771;48.180;11.400;2023-05-29T00:19:57;13.23;;;8.10;;
48006;SDS011;33771;48.180;11.400;2023-05-29T00:22:27;14.73;;;7.90;;
48006;SDS011;33771;48.180;11.400;2023-05-29T00:24:53;14.30;;;6.97;;
48006;SDS011;33771;48.180;11.400;2023-05-29T00:27:19;13.87;;;7.73;;
48006;SDS011;33771;48.180;11.400;2023-05-29T00:29:45;11.97;;;7.50;;
48006;SDS011;33771;48.180;11.400;2023-05-29T00:32:11;11.73;;;7.40;;
48006;SDS011;33771;48.180;11.400;2023-05-29T00:34:36;14.90;;;7.60;;
48006;SDS011;33771;48.180;11.400;2023-05-29T00:37:02;13.18;;;8.13;;
48006;SDS011;33771;48.180;11.400;2023-05-29T00:39:27;14.10;;;7.33;;
48006;SDS011;33771;48.180;11.400;2023-05-29T00:41:53;14.10;;;7.60;;
48006;SDS011;33771;48.180;11.400;2023-05-29T00:44:19;13.60;;;8.30;;
48006;SDS011;33771;48.180;11.400;2023-05-29T00:46:48;11.87;;;7.57;;
48006;SDS011;33771;48.180;11.400;2023-05-29T00:49:15;14.57;;;8.33;;
48006;SDS011;33771;48.180;11.400;2023-05-29T00:51:41;13.07;;;7.60;;
48006;SDS011;33771;48.180;11.400;2023-05-29T00:54:08;13.77;;;8.50;;
48006;SDS011;33771;48.180;11.400;2023-05-29T00:56:40;13.50;;;9.10;;
48006;SDS011;33771;48.180;11.400;2023-05-29T00:59:10;14.73;;;8.17;;
48006;SDS011;33771;48.180;11.400;2023-05-29T01:01:36;13.23;;;8.13;;
48006;SDS011;33771;48.180;11.400;2023-05-29T01:04:03;14.60;;;8.47;;
48006;SDS011;33771;48.180;11.400;2023-05-29T01:06:33;13.40;;;7.30;;
48006;SDS011;33771;48.180;11.400;2023-05-29T01:08:58;14.97;;;8.43;;
48006;SDS011;33771;48.180;11.400;2023-05-29T01:11:41;15.53;;;8.40;;
48006;SDS011;33771;48.180;11.400;2023-05-29T01:22:55;13.33;;;8.27;;
48006;SDS011;33771;48.180;11.400;2023-05-29T01:28:15;14.33;;;8.73;;
48006;SDS011;33771;48.180;11.400;2023-05-29T01:30:44;12.53;;;7.33;;
48006;SDS011;33771;48.180;11.400;2023-05-29T01:33:11;14.07;;;8.13;;
48006;SDS011;33771;48.180;11.400;2023-05-29T01:35:37;15.90;;;7.90;;
48006;SDS011;33771;48.180;11.400;2023-05-29T01:38:02;15.00;;;9.20;;
48006;SDS011;33771;48.180;11.400;2023-05-29T01:40:28;14.57;;;8.00;;
48006;SDS011;33771;48.180;11.400;2023-05-29T01:42:53;13.73;;;8.70;;
48006;SDS011;33771;48.180;11.400;2023-05-29T01:45:20;14.80;;;8.67;;
48006;SDS011;33771;48.180;11.400;2023-05-29T01:47:46;14.57;;;8.30;;
48006;SDS011;33771;48.180;11.400;2023-05-29T01:50:11;13.37;;;8.30;;
48006;SDS011;33771;48.180;11.400;2023-05-29T01:52:40;14.57;;;8.57;;
48006;SDS011;33771;48.180;11.400;2023-05-29T01:55:05;13.13;;;8.20;;
48006;SDS011;33771;48.180;11.400;2023-05-29T01:57:31;14.90;;;8.17;;
48006;SDS011;33771;48.180;11.400;2023-05-29T01:59:57;12.77;;;7.70;;
48006;SDS011;33771;48.180;11.400;2023-05-29T02:02:23;15.93;;;8.27;;
48006;SDS011;33771;48.180;11.400;2023-05-29T02:04:49;14.63;;;8.53;;
48006;SDS011;33771;48.180;11.400;2023-05-29T02:07:15;13.90;;;8.77;;
48006;SDS011;33771;48.180;11.400;2023-05-29T02:09:40;13.83;;;9.20;;
48006;SDS011;33771;48.180;11.400;2023-05-29T02:12:06;12.67;;;8.37;;
48006;SDS011;33771;48.180;11.400;2023-05-29T02:14:32;16.60;;;8.40;;
48006;SDS011;33771;48.180;11.400;2023-05-29T02:16:58;15.67;;;8.33;;
48006;SDS011;33771;48.180;11.400;2023-05-29T02:19:24;15.87;;;8.43;;
48006;SDS011;33771;48.180;11.400;2023-05-29T02:21:53;17.47;;;9.00;;
48006;SDS011;33771;48.180;11.400;2023-05-29T02:24:19;14.10;;;7.90;;
48006;SDS011;33771;48.180;11.400;2023-05-29T02:26:45;12.73;;;8.20;;
48006;SDS011;33771;48.180;11.400;2023-05-29T02:29:12;14.20;;;8.43;;
48006;SDS011;33771;48.180;11.400;2023-05-29T02:31:38;13.53;;;8.17;;
48006;SDS011;33771;48.180;11.400;2023-05-29T02:34:03;15.87;;;8.50;;
48006;SDS011;33771;48.180;11.400;2023-05-29T02:36:29;15.93;;;7.67;;
48006;SDS011;33771;48.180;11.400;2023-05-29T02:38:54;14.27;;;8.40;;
48006;SDS011;33771;48.180;11.400;2023-05-29T02:41:20;13.97;;;8.70;;
48006;SDS011;33771;48.180;11.400;2023-05-29T02:43:45;13.50;;;8.60;;
48006;SDS011;33771;48.180;11.400;2023-05-29T02:46:11;16.03;;;8.80;;
48006;SDS011;33771;48.180;11.400;2023-05-29T02:48:37;15.10;;;8.43;;
48006;SDS011;33771;48.180;11.400;2023-05-29T02:51:04;13.17;;;8.20;;
48006;SDS011;33771;48.180;11.400;2023-05-29T02:53:30;13.30;;;8.17;;
48006;SDS011;33771;48.180;11.400;2023-05-29T02:55:56;14.83;;;9.10;;
48006;SDS011;33771;48.180;11.400;2023-05-29T02:58:21;15.57;;;8.43;;
48006;SDS011;33771;48.180;11.400;2023-05-29T03:00:47;17.23;;;9.53;;
48006;SDS011;33771;48.180;11.400;2023-05-29T03:03:12;13.87;;;8.73;;
48006;SDS011;33771;48.180;11.400;2023-05-29T03:05:38;14.87;;;8.53;;
48006;SDS011;33771;48.180;11.400;2023-05-29T03:08:04;13.97;;;8.50;;
48006;SDS011;33771;48.180;11.400;2023-05-29T03:10:29;14.27;;;8.17;;
48006;SDS011;33771;48.180;11.400;2023-05-29T03:12:55;12.73;;;8.47;;
48006;SDS011;33771;48.180;11.400;2023-05-29T03:15:20;16.50;;;8.47;;
48006;SDS011;33771;48.180;11.400;2023-05-29T03:17:46;14.07;;;8.60;;
48006;SDS011;33771;48.180;11.400;2023-05-29T03:20:12;15.33;;;9.20;;
48006;SDS011;33771;48.180;11.400;2023-05-29T03:22:38;12.97;;;8.30;;
48006;SDS011;33771;48.180;11.400;2023-05-29T03:25:04;17.83;;;8.30;;
48006;SDS011;33771;48.180;11.400;2023-05-29T03:27:30;15.77;;;8.43;;
48006;SDS011;33771;48.180;11.400;2023-05-29T03:29:55;17.40;;;8.70;;
48006;SDS011;33771;48.180;11.400;2023-05-29T03:32:21;18.10;;;8.80;;
48006;SDS011;33771;48.180;11.400;2023-05-29T03:34:46;15.77;;;8.23;;
48006;SDS011;33771;48.180;11.400;2023-05-29T03:37:13;14.80;;;8.77;;
48006;SDS011;33771;48.180;11.400;2023-05-29T03:39:39;15.93;;;8.37;;
48006;SDS011;33771;48.180;11.400;2023-05-29T03:42:04;15.67;;;9.10;;
48006;SDS011;33771;48.180;11.400;2023-05-29T03:44:30;14.13;;;8.63;;
48006;SDS011;33771;48.180;11.400;2023-05-29T03:46:56;15.63;;;9.20;;
48006;SDS011;33771;48.180;11.400;2023-05-29T03:49:21;15.60;;;8.97;;
48006;SDS011;33771;48.180;11.400;2023-05-29T03:51:47;16.07;;;9.43;;
48006;SDS011;33771;48.180;11.400;2023-05-29T03:54:12;16.33;;;9.77;;
48006;SDS011;33771;48.180;11.400;2023-05-29T03:56:38;14.67;;;8.70;;
48006;SDS011;33771;48.180;11.400;2023-05-29T03:59:03;15.03;;;8.90;;
48006;SDS011;33771;48.180;11.400;2023-05-29T04:01:29;14.80;;;9.27;;
48006;SDS011;33771;48.180;11.400;2023-05-29T04:03:55;18.00;;;8.80;;
48006;SDS011;33771;48.180;11.400;2023-05-29T04:06:20;14.87;;;8.60;;
48006;SDS011;33771;48.180;11.400;2023-05-29T04:08:46;14.43;;;9.17;;
48006;SDS011;33771;48.180;11.400;2023-05-29T04:11:12;14.20;;;8.80;;
48006;SDS011;33771;48.180;11.400;2023-05-29T04:13:38;13.33;;;7.93;;
48006;SDS011;33771;48.180;11.400;2023-05-29T04:16:04;14.50;;;9.13;;
48006;SDS011;33771;48.180;11.400;2023-05-29T04:18:30;15.10;;;9.30;;
48006;SDS011;33771;48.180;11.400;2023-05-29T04:20:55;15.10;;;8.07;;
48006;SDS011;33771;48.180;11.400;2023-05-29T04:23:21;14.27;;;8.27;;
48006;SDS011;33771;48.180;11.400;2023-05-29T04:25:47;13.30;;;8.47;;
48006;SDS011;33771;48.180;11.400;2023-05-29T04:28:15;13.83;;;8.50;;
48006;SDS011;33771;48.180;11.400;2023-05-29T04:30:41;13.13;;;8.43;;
48006;SDS011;33771;48.180;11.400;2023-05-29T04:33:07;13.60;;;8.67;;
48006;SDS011;33771;48.180;11.400;2023-05-29T04:35:34;14.40;;;8.00;;
48006;SDS011;33771;48.180;11.400;2023-05-29T04:38:00;15.80;;;8.77;;
48006;SDS011;33771;48.180;11.400;2023-05-29T04:40:26;14.57;;;8.67;;
48006;SDS011;33771;48.180;11.400;2023-05-29T04:42:51;18.13;;;8.93;;
48006;SDS011;33771;48.180;11.400;2023-05-29T04:45:18;15.53;;;9.10;;
48006;SDS011;33771;48.180;11.400;2023-05-29T04:47:45;11.63;;;8.03;;
48006;SDS011;33771;48.180;11.400;2023-05-29T04:50:11;14.27;;;8.63;;
48006;SDS011;33771;48.180;11.400;2023-05-29T04:52:41;14.17;;;8.90;;
48006;SDS011;33771;48.180;11.400;2023-05-29T04:55:08;14.47;;;8.73;;
48006;SDS011;33771;48.180;11.400;2023-05-29T04:57:34;12.13;;;8.17;;
48006;SDS011;33771;48.180;11.400;2023-05-29T04:59:59;16.57;;;8.10;;
48006;SDS011;33771;48.180;11.400;2023-05-29T05:02:25;14.63;;;8.47;;
48006;SDS011;33771;48.180;11.400;2023-05-29T05:04:50;13.47;;;8.33;;
48006;SDS011;33771;48.180;11.400;2023-05-29T05:07:16;12.63;;;7.87;;
48006;SDS011;33771;48.180;11.400;2023-05-29T05:09:42;17.13;;;9.03;;
48006;SDS011;33771;48.180;11.400;2023-05-29T05:12:07;13.27;;;8.53;;
48006;SDS011;33771;48.180;11.400;2023-05-29T05:14:34;16.60;;;8.73;;
48006;SDS011;33771;48.180;11.400;2023-05-29T05:16:59;16.67;;;9.43;;
48006;SDS011;33771;48.180;11.400;2023-05-29T05:19:25;13.17;;;8.37;;
48006;SDS011;33771;48.180;11.400;2023-05-29T05:21:50;12.87;;;9.27;;
48006;SDS011;33771;48.180;11.400;2023-05-29T05:24:16;14.87;;;9.13;;
48006;SDS011;33771;48.180;11.400;2023-05-29T05:26:41;15.30;;;8.75;;
48006;SDS011;33771;48.180;11.400;2023-05-29T05:29:07;16.27;;;8.60;;
48006;SDS011;33771;48.180;11.400;2023-05-29T05:31:32;13.33;;;8.17;;
48006;SDS011;33771;48.180;11.400;2023-05-29T05:33:58;15.00;;;8.80;;
48006;SDS011;33771;48.180;11.400;2023-05-29T05:36:24;15.02;;;9.18;;
48006;SDS011;33771;48.180;11.400;2023-05-29T05:38:49;14.98;;;9.80;;
48006;SDS011;33771;48.180;11.400;2023-05-29T05:41:15;13.75;;;8.30;;
48006;SDS011;33771;48.180;11.400;2023-05-29T05:43:41;14.90;;;8.27;;
48006;SDS011;33771;48.180;11.400;2023-05-29T05:46:06;12.35;;;8.18;;
48006;SDS011;33771;48.180;11.400;2023-05-29T05:48:32;14.93;;;8.57;;
48006;SDS011;33771;48.180;11.400;2023-05-29T05:50:57;13.25;;;8.25;;
48006;SDS011;33771;48.180;11.400;2023-05-29T05:53:23;12.35;;;8.00;;
48006;SDS011;33771;48.180;11.400;2023-05-29T05:55:49;19.40;;;9.00;;
48006;SDS011;33771;48.180;11.400;2023-05-29T05:58:14;11.23;;;7.22;;
48006;SDS011;33771;48.180;11.400;2023-05-29T06:00:40;14.00;;;8.40;;
48006;SDS011;33771;48.180;11.400;2023-05-29T06:03:07;13.50;;;7.95;;
48006;SDS011;33771;48.180;11.400;2023-05-29T06:05:32;13.10;;;7.45;;
48006;SDS011;33771;48.180;11.400;2023-05-29T06:07:59;15.07;;;8.18;;
48006;SDS011;33771;48.180;11.400;2023-05-29T06:10:24;15.80;;;8.10;;
48006;SDS011;33771;48.180;11.400;2023-05-29T06:12:50;12.68;;;7.78;;
48006;SDS011;33771;48.180;11.400;2023-05-29T06:15:17;12.73;;;8.80;;
48006;SDS011;33771;48.180;11.400;2023-05-29T06:17:42;13.48;;;7.90;;
48006;SDS011;33771;48.180;11.400;2023-05-29T06:20:08;22.75;;;14.35;;
48006;SDS011;33771;48.180;11.400;2023-05-29T06:22:35;13.68;;;8.18;;
48006;SDS011;33771;48.180;11.400;2023-05-29T06:25:03;13.15;;;7.85;;
48006;SDS011;33771;48.180;11.400;2023-05-29T06:27:29;13.73;;;6.85;;
48006;SDS011;33771;48.180;11.400;2023-05-29T06:29:55;13.68;;;7.53;;
48006;SDS011;33771;48.180;11.400;2023-05-29T06:32:21;11.55;;;7.75;;
48006;SDS011;33771;48.180;11.400;2023-05-29T06:34:47;12.40;;;7.35;;
48006;SDS011;33771;48.180;11.400;2023-05-29T06:37:12;12.80;;;6.97;;
48006;SDS011;33771;48.180;11.400;2023-05-29T06:39:38;15.77;;;8.20;;
48006;SDS011;33771;48.180;11.400;2023-05-29T06:42:06;11.63;;;6.97;;
48006;SDS011;33771;48.180;11.400;2023-05-29T06:44:33;11.38;;;7.32;;
48006;SDS011;33771;48.180;11.400;2023-05-29T06:46:58;11.55;;;7.03;;
48006;SDS011;33771;48.180;11.400;2023-05-29T06:49:24;12.25;;;7.57;;
48006;SDS011;33771;48.180;11.400;2023-05-29T06:51:49;12.00;;;7.22;;
48006;SDS011;33771;48.180;11.400;2023-05-29T06:54:15;12.55;;;7.00;;
48006;SDS011;33771;48.180;11.400;2023-05-29T06:56:41;10.52;;;6.88;;
48006;SDS011;33771;48.180;11.400;2023-05-29T06:59:06;10.43;;;6.97;;
48006;SDS011;33771;48.180;11.400;2023-05-29T07:01:32;10.20;;;6.50;;
48006;SDS011;33771;48.180;11.400;2023-05-29T07:03:57;9.63;;;5.72;;
48006;SDS011;33771;48.180;11.400;2023-05-29T07:06:23;11.10;;;5.75;;
48006;SDS011;33771;48.180;11.400;2023-05-29T07:08:49;12.23;;;6.38;;
48006;SDS011;33771;48.180;11.400;2023-05-29T07:11:14;12.55;;;7.13;;
48006;SDS011;33771;48.180;11.400;2023-05-29T07:13:40;10.60;;;5.93;;
48006;SDS011;33771;48.180;11.400;2023-05-29T07:16:05;10.93;;;6.00;;
48006;SDS011;33771;48.180;11.400;2023-05-29T07:18:31;12.95;;;5.65;;
48006;SDS011;33771;48.180;11.400;2023-05-29T07:20:56;10.55;;;5.93;;
48006;SDS011;33771;48.180;11.400;2023-05-29T07:23:23;12.65;;;6.32;;
48006;SDS011;33771;48.180;11.400;2023-05-29T07:25:49;10.45;;;6.00;;
48006;SDS011;33771;48.180;11.400;2023-05-29T07:28:15;12.55;;;7.15;;
48006;SDS011;33771;48.180;11.400;2023-05-29T07:30:40;12.25;;;6.45;;
48006;SDS011;33771;48.180;11.400;2023-05-29T07:33:06;12.20;;;6.55;;
48006;SDS011;33771;48.180;11.400;2023-05-29T07:35:31;15.32;;;6.65;;
48006;SDS011;33771;48.180;11.400;2023-05-29T07:37:58;12.35;;;7.10;;
48006;SDS011;33771;48.180;11.400;2023-05-29T07:40:24;11.52;;;5.78;;
48006;SDS011;33771;48.180;11.400;2023-05-29T07:42:50;10.27;;;6.30;;
48006;SDS011;33771;48.180;11.400;2023-05-29T07:45:15;11.82;;;6.53;;
48006;SDS011;33771;48.180;11.400;2023-05-29T07:47:41;8.55;;;5.82;;
48006;SDS011;33771;48.180;11.400;2023-05-29T07:50:07;12.05;;;6.45;;
48006;SDS011;33771;48.180;11.400;2023-05-29T07:52:33;10.98;;;6.50;;
48006;SDS011;33771;48.180;11.400;2023-05-29T07:54:59;10.38;;;6.50;;
48006;SDS011;33771;48.180;11.400;2023-05-29T07:57:26;12.85;;;6.80;;
48006;SDS011;33771;48.180;11.400;2023-05-29T07:59:52;10.85;;;6.47;;
48006;SDS011;33771;48.180;11.400;2023-05-29T08:02:18;10.30;;;6.07;;
48006;SDS011;33771;48.180;11.400;2023-05-29T08:04:44;12.85;;;6.47;;
48006;SDS011;33771;48.180;11.400;2023-05-29T08:07:10;10.98;;;6.38;;
48006;SDS011;33771;48.180;11.400;2023-05-29T08:09:35;8.10;;;5.68;;
48006;SDS011;33771;48.180;11.400;2023-05-29T08:12:01;10.55;;;6.43;;
48006;SDS011;33771;48.180;11.400;2023-05-29T08:14:27;12.07;;;6.07;;
48006;SDS011;33771;48.180;11.400;2023-05-29T08:16:52;10.73;;;6.13;;
48006;SDS011;33771;48.180;11.400;2023-05-29T08:19:18;9.30;;;5.72;;
48006;SDS011;33771;48.180;11.400;2023-05-29T08:21:43;14.35;;;5.95;;
48006;SDS011;33771;48.180;11.400;2023-05-29T08:24:09;12.90;;;6.25;;
48006;SDS011;33771;48.180;11.400;2023-05-29T08:26:35;11.52;;;6.03;;
48006;SDS011;33771;48.180;11.400;2023-05-29T08:29:01;10.13;;;5.80;;
48006;SDS011;33771;48.180;11.400;2023-05-29T08:31:26;10.30;;;6.05;;
48006;SDS011;33771;48.180;11.400;2023-05-29T08:33:52;12.30;;;5.78;;
48006;SDS011;33771;48.180;11.400;2023-05-29T08:36:18;9.68;;;6.53;;
48006;SDS011;33771;48.180;11.400;2023-05-29T08:38:46;13.77;;;5.60;;
48006;SDS011;33771;48.180;11.400;2023-05-29T08:41:25;10.13;;;5.90;;
48006;SDS011;33771;48.180;11.400;2023-05-29T08:43:55;9.02;;;5.68;;
48006;SDS011;33771;48.180;11.400;2023-05-29T08:46:23;10.02;;;5.47;;
48006;SDS011;33771;48.180;11.400;2023-05-29T08:48:49;12.90;;;5.60;;
48006;SDS011;33771;48.180;11.400;2023-05-29T08:51:17;10.32;;;5.82;;
48006;SDS011;33771;48.180;11.400;2023-05-29T08:53:46;9.73;;;5.57;;
48006;SDS011;33771;48.180;11.400;2023-05-29T08:56:12;11.23;;;6.28;;
48006;SDS011;33771;48.180;11.400;2023-05-29T08:58:37;11.68;;;5.65;;
48006;SDS011;33771;48.180;11.400;2023-05-29T09:01:03;9.48;;;6.15;;
48006;SDS011;33771;48.180;11.400;2023-05-29T09:03:29;12.88;;;6.93;;
48006;SDS011;33771;48.180;11.400;2023-05-29T09:05:59;10.10;;;5.68;;
48006;SDS011;33771;48.180;11.400;2023-05-29T09:08:25;12.52;;;5.97;;
48006;SDS011;33771;48.180;11.400;2023-05-29T09:10:52;9.68;;;5.93;;
48006;SDS011;33771;48.180;11.400;2023-05-29T09:13:17;11.18;;;5.80;;
48006;SDS011;33771;48.180;11.400;2023-05-29T09:15:43;10.32;;;6.25;;
48006;SDS011;33771;48.180;11.400;2023-05-29T09:18:08;12.25;;;5.57;;
48006;SDS011;33771;48.180;11.400;2023-05-29T09:20:34;9.30;;;5.50;;
48006;SDS011;33771;48.180;11.400;2023-05-29T09:25:29;10.10;;;5.38;;
48006;SDS011;33771;48.180;11.400;2023-05-29T09:33:00;7.65;;;5.10;;
48006;SDS011;33771;48.180;11.400;2023-05-29T09:35:31;6.93;;;4.82;;
48006;SDS011;33771;48.180;11.400;2023-05-29T09:38:01;12.32;;;5.20;;
48006;SDS011;33771;48.180;11.400;2023-05-29T09:40:34;10.20;;;5.53;;
48006;SDS011;33771;48.180;11.400;2023-05-29T09:43:04;10.55;;;5.15;;
48006;SDS011;33771;48.180;11.400;2023-05-29T09:45:37;11.40;;;5.63;;
48006;SDS011;33771;48.180;11.400;2023-05-29T09:48:05;10.35;;;5.40;;
48006;SDS011;33771;48.180;11.400;2023-05-29T09:50:38;8.95;;;4.97;;
48006;SDS011;33771;48.180;11.400;2023-05-29T09:53:10;6.97;;;5.25;;
48006;SDS011;33771;48.180;11.400;2023-05-29T09:55:48;9.60;;;4.78;;
48006;SDS011;33771;48.180;11.400;2023-05-29T09:58:15;10.43;;;5.30;;
48006;SDS011;33771;48.180;11.400;2023-05-29T10:00:42;8.50;;;5.10;;
48006;SDS011;33771;48.180;11.400;2023-05-29T10:03:08;8.98;;;5.20;;
48006;SDS011;33771;48.180;11.400;2023-05-29T10:05:41;7.53;;;4.43;;
48006;SDS011;33771;48.180;11.400;2023-05-29T10:08:11;10.90;;;4.90;;
48006;SDS011;33771;48.180;11.400;2023-05-29T10:10:40;10.07;;;5.38;;
48006;SDS011;33771;48.180;11.400;2023-05-29T10:13:09;8.70;;;4.18;;
48006;SDS011;33771;48.180;11.400;2023-05-29T10:15:40;10.50;;;4.95;;
48006;SDS011;33771;48.180;11.400;2023-05-29T10:18:16;8.25;;;4.97;;
48006;SDS011;33771;48.180;11.400;2023-05-29T10:20:51;7.93;;;4.68;;
48006;SDS011;33771;48.180;11.400;2023-05-29T10:23:21;9.68;;;4.43;;
48006;SDS011;33771;48.180;11.400;2023-05-29T10:25:51;8.40;;;5.15;;
48006;SDS011;33771;48.180;11.400;2023-05-29T10:28:18;10.85;;;4.65;;
48006;SDS011;33771;48.180;11.400;2023-05-29T10:30:46;11.27;;;4.85;;
48006;SDS011;33771;48.180;11.400;2023-05-29T10:36:18;7.10;;;4.63;;
48006;SDS011;33771;48.180;11.400;2023-05-29T10:38:47;9.02;;;4.72;;
48006;SDS011;33771;48.180;11.400;2023-05-29T10:41:29;6.47;;;4.20;;
48006;SDS011;33771;48.180;11.400;2023-05-29T10:43:56;7.38;;;4.93;;
48006;SDS011;33771;48.180;11.400;2023-05-29T10:49:15;6.93;;;4.53;;
48006;SDS011;33771;48.180;11.400;2023-05-29T10:51:41;8.27;;;4.35;;
48006;SDS011;33771;48.180;11.400;2023-05-29T10:54:07;6.18;;;4.18;;
48006;SDS011;33771;48.180;11.400;2023-05-29T10:56:32;7.53;;;4.30;;
48006;SDS011;33771;48.180;11.400;2023-05-29T10:58:58;8.30;;;4.70;;
48006;SDS011;33771;48.180;11.400;2023-05-29T11:01:27;8.38;;;5.00;;
48006;SDS011;33771;48.180;11.400;2023-05-29T11:06:43;7.45;;;4.38;;
48006;SDS011;33771;48.180;11.400;2023-05-29T11:09:28;6.90;;;4.13;;
48006;SDS011;33771;48.180;11.400;2023-05-29T11:15:01;6.88;;;4.28;;
48006;SDS011;33771;48.180;11.400;2023-05-29T11:20:03;10.82;;;4.97;;
48006;SDS011;33771;48.180;11.400;2023-05-29T11:22:41;8.45;;;4.03;;
48006;SDS011;33771;48.180;11.400;2023-05-29T11:27:45;7.70;;;4.22;;
48006;SDS011;33771;48.180;11.400;2023-05-29T11:30:11;10.05;;;4.47;;
48006;SDS011;33771;48.180;11.400;2023-05-29T11:32:37;7.07;;;4.20;;
48006;SDS011;33771;48.180;11.400;2023-05-29T11:35:08;10.18;;;4.63;;
48006;SDS011;33771;48.180;11.400;2023-05-29T11:37:35;10.82;;;4.45;;
48006;SDS011;33771;48.180;11.400;2023-05-29T11:40:03;7.65;;;4.38;;
48006;SDS011;33771;48.180;11.400;2023-05-29T11:42:30;5.95;;;3.88;;
48006;SDS011;33771;48.180;11.400;2023-05-29T11:45:09;7.05;;;4.38;;
48006;SDS011;33771;48.180;11.400;2023-05-29T11:50:20;7.47;;;4.15;;
48006;SDS011;33771;48.180;11.400;2023-05-29T11:52:50;8.50;;;4.15;;
48006;SDS011;33771;48.180;11.400;2023-05-29T11:55:19;6.57;;;4.28;;
48006;SDS011;33771;48.180;11.400;2023-05-29T11:57:46;7.28;;;4.10;;
48006;SDS011;33771;48.180;11.400;2023-05-29T12:00:13;8.02;;;4.15;;
48006;SDS011;33771;48.180;11.400;2023-05-29T12:02:43;6.80;;;4.20;;
48006;SDS011;33771;48.180;11.400;2023-05-29T12:05:12;5.47;;;3.80;;
48006;SDS011;33771;48.180;11.400;2023-05-29T12:07:46;8.32;;;4.53;;
48006;SDS011;33771;48.180;11.400;2023-05-29T12:10:13;6.07;;;4.15;;
48006;SDS011;33771;48.180;11.400;2023-05-29T12:12:47;6.68;;;3.83;;
48006;SDS011;33771;48.180;11.400;2023-05-29T12:15:16;6.38;;;3.95;;
48006;SDS011;33771;48.180;11.400;2023-05-29T12:17:43;9.35;;;4.10;;
48006;SDS011;33771;48.180;11.400;2023-05-29T12:20:10;8.27;;;4.40;;
48006;SDS011;33771;48.180;11.400;2023-05-29T12:22:37;6.95;;;4.78;;
48006;SDS011;33771;48.180;11.400;2023-05-29T12:25:07;9.88;;;4.50;;
48006;SDS011;33771;48.180;11.400;2023-05-29T12:27:37;6.90;;;4.23;;
48006;SDS011;33771;48.180;11.400;2023-05-29T12:30:10;6.90;;;4.03;;
48006;SDS011;33771;48.180;11.400;2023-05-29T12:32:39;7.38;;;4.32;;
48006;SDS011;33771;48.180;11.400;2023-05-29T12:35:25;7.50;;;4.00;;
48006;SDS011;33771;48.180;11.400;2023-05-29T12:37:55;8.00;;;4.28;;
48006;SDS011;33771;48.180;11.400;2023-05-29T12:40:22;7.78;;;4.45;;
48006;SDS011;33771;48.180;11.400;2023-05-29T12:42:52;6.97;;;3.97;;
48006;SDS011;33771;48.180;11.400;2023-05-29T12:45:24;9.70;;;3.80;;
48006;SDS011;33771;48.180;11.400;2023-05-29T12:47:55;5.93;;;3.80;;
48006;SDS011;33771;48.180;11.400;2023-05-29T12:52:57;8.02;;;4.43;;
48006;SDS011;33771;48.180;11.400;2023-05-29T12:55:22;8.77;;;4.78;;
48006;SDS011;33771;48.180;11.400;2023-05-29T12:57:48;6.88;;;4.15;;
48006;SDS011;33771;48.180;11.400;2023-05-29T13:00:14;6.78;;;4.18;;
48006;SDS011;33771;48.180;11.400;2023-05-29T13:02:40;10.25;;;4.75;;
48006;SDS011;33771;48.180;11.400;2023-05-29T13:05:05;8.65;;;4.47;;
48006;SDS011;33771;48.180;11.400;2023-05-29T13:07:32;8.95;;;4.32;;
48006;SDS011;33771;48.180;11.400;2023-05-29T13:09:59;11.30;;;4.93;;
48006;SDS011;33771;48.180;11.400;2023-05-29T13:12:25;5.57;;;4.05;;
48006;SDS011;33771;48.180;11.400;2023-05-29T13:14:50;7.97;;;4.55;;
48006;SDS011;33771;48.180;11.400;2023-05-29T13:17:16;8.68;;;4.35;;
48006;SDS011;33771;48.180;11.400;2023-05-29T13:19:42;12.07;;;4.15;;
48006;SDS011;33771;48.180;11.400;2023-05-29T13:22:08;7.57;;;4.10;;
48006;SDS011;33771;48.180;11.400;2023-05-29T13:24:34;6.82;;;3.80;;
48006;SDS011;33771;48.180;11.400;2023-05-29T13:26:59;6.95;;;4.15;;
48006;SDS011;33771;48.180;11.400;2023-05-29T13:29:25;7.68;;;4.47;;
48006;SDS011;33771;48.180;11.400;2023-05-29T13:31:51;7.57;;;4.18;;
48006;SDS011;33771;48.180;11.400;2023-05-29T13:34:17;8.68;;;4.22;;
48006;SDS011;33771;48.180;11.400;2023-05-29T13:36:42;6.30;;;4.13;;
48006;SDS011;33771;48.180;11.400;2023-05-29T13:39:09;6.80;;;3.90;;
48006;SDS011;33771;48.180;11.400;2023-05-29T13:41:35;6.85;;;3.67;;
48006;SDS011;33771;48.180;11.400;2023-05-29T13:44:01;14.55;;;4.95;;
48006;SDS011;33771;48.180;11.400;2023-05-29T13:46:27;7.20;;;4.38;;
48006;SDS011;33771;48.180;11.400;2023-05-29T13:48:52;6.88;;;3.78;;
48006;SDS011;33771;48.180;11.400;2023-05-29T13:51:18;5.90;;;3.83;;
48006;SDS011;33771;48.180;11.400;2023-05-29T13:53:43;8.35;;;3.85;;
48006;SDS011;33771;48.180;11.400;2023-05-29T13:56:09;6.15;;;3.90;;
48006;SDS011;33771;48.180;11.400;2023-05-29T13:58:34;7.32;;;4.03;;
48006;SDS011;33771;48.180;11.400;2023-05-29T14:01:00;7.53;;;4.03;;
48006;SDS011;33771;48.180;11.400;2023-05-29T14:03:25;6.25;;;4.32;;
48006;SDS011;33771;48.180;11.400;2023-05-29T14:05:53;10.10;;;4.28;;
48006;SDS011;33771;48.180;11.400;2023-05-29T14:08:19;7.32;;;4.20;;
48006;SDS011;33771;48.180;11.400;2023-05-29T14:10:45;8.93;;;4.45;;
48006;SDS011;33771;48.180;11.400;2023-05-29T14:13:11;7.80;;;4.32;;
48006;SDS011;33771;48.180;11.400;2023-05-29T14:15:36;8.07;;;4.53;;
48006;SDS011;33771;48.180;11.400;2023-05-29T14:18:02;7.47;;;4.18;;
48006;SDS011;33771;48.180;11.400;2023-05-29T14:20:28;7.78;;;4.20;;
48006;SDS011;33771;48.180;11.400;2023-05-29T14:22:54;7.93;;;4.65;;
48006;SDS011;33771;48.180;11.400;2023-05-29T14:25:19;6.45;;;4.10;;
48006;SDS011;33771;48.180;11.400;2023-05-29T14:27:45;8.98;;;4.00;;
48006;SDS011;33771;48.180;11.400;2023-05-29T14:30:11;9.82;;;4.53;;
48006;SDS011;33771;48.180;11.400;2023-05-29T14:32:36;6.97;;;4.35;;
48006;SDS011;33771;48.180;11.400;2023-05-29T14:35:02;5.97;;;4.00;;
48006;SDS011;33771;48.180;11.400;2023-05-29T14:37:28;7.18;;;4.07;;
48006;SDS011;33771;48.180;11.400;2023-05-29T14:39:53;6.85;;;3.55;;
48006;SDS011;33771;48.180;11.400;2023-05-29T14:42:19;8.65;;;4.35;;
48006;SDS011;33771;48.180;11.400;2023-05-29T14:44:44;5.82;;;4.22;;
48006;SDS011;33771;48.180;11.400;2023-05-29T14:47:10;7.20;;;3.92;;
48006;SDS011;33771;48.180;11.400;2023-05-29T14:49:36;7.45;;;4.43;;
48006;SDS011;33771;48.180;11.400;2023-05-29T14:52:02;7.43;;;4.05;;
48006;SDS011;33771;48.180;11.400;2023-05-29T14:54:29;7.28;;;3.95;;
48006;SDS011;33771;48.180;11.400;2023-05-29T14:56:55;6.82;;;4.22;;
48006;SDS011;33771;48.180;11.400;2023-05-29T14:59:22;7.03;;;4.30;;
48006;SDS011;33771;48.180;11.400;2023-05-29T15:01:48;11.57;;;4.43;;
48006;SDS011;33771;48.180;11.400;2023-05-29T15:04:14;6.72;;;3.78;;